sensor_id;sensor_type;location;lat;lon;timestamp;P1;durP1;ratioP1;P2;durP2;ratioP2
30301;SDS011;17111;52.130;5.028;2023-02-03T00:01:48;25.63;;;15.18;;
30301;SDS011;17111;52.130;5.028;2023-02-03T00:04:15;24.55;;;14.13;;
30301;SDS011;17111;52.130;5.028;2023-02-03T00:06:41;27.63;;;14.38;;
30301;SDS011;17111;52.130;5.028;2023-02-03T00:09:09;23.73;;;13.27;;
30301;SDS011;17111;52.130;5.028;2023-02-03T00:11:36;26.13;;;14.05;;
30301;SDS011;17111;52.130;5.028;2023-02-03T00:14:02;24.90;;;13.80;;
30301;SDS011;17111;52.130;5.028;2023-02-03T00:16:30;22.15;;;13.27;;
30301;SDS011;17111;52.130;5.028;2023-02-03T00:18:57;24.90;;;13.50;;
30301;SDS011;17111;52.130;5.028;2023-02-03T00:21:23;22.83;;;12.77;;
30301;SDS011;17111;52.130;5.028;2023-02-03T00:23:50;27.63;;;12.68;;
30301;SDS011;17111;52.130;5.028;2023-02-03T00:26:17;22.52;;;13.02;;
30301;SDS011;17111;52.130;5.028;2023-02-03T00:28:43;23.25;;;12.88;;
30301;SDS011;17111;52.130;5.028;2023-02-03T00:31:14;20.60;;;11.93;;
30301;SDS011;17111;52.130;5.028;2023-02-03T00:33:42;19.67;;;10.70;;
30301;SDS011;17111;52.130;5.028;2023-02-03T00:36:09;34.25;;;12.38;;
30301;SDS011;17111;52.130;5.028;2023-02-03T00:38:36;19.77;;;10.20;;
30301;SDS011;17111;52.130;5.028;2023-02-03T00:41:03;19.05;;;10.27;;
30301;SDS011;17111;52.130;5.028;2023-02-03T00:43:29;22.25;;;12.35;;
30301;SDS011;17111;52.130;5.028;2023-02-03T00:45:56;18.45;;;10.75;;
30301;SDS011;17111;52.130;5.028;2023-02-03T00:48:22;21.70;;;11.00;;
30301;SDS011;17111;52.130;5.028;2023-02-03T00:50:49;20.58;;;10.65;;
30301;SDS011;17111;52.130;5.028;2023-02-03T00:53:15;19.02;;;9.63;;
30301;SDS011;17111;52.130;5.028;2023-02-03T00:55:42;18.95;;;10.55;;
30301;SDS011;17111;52.130;5.028;2023-02-03T00:58:09;17.20;;;9.57;;
30301;SDS011;17111;52.130;5.028;2023-02-03T01:00:36;19.50;;;10.00;;
30301;SDS011;17111;52.130;5.028;2023-02-03T01:03:03;16.77;;;9.02;;
30301;SDS011;17111;52.130;5.028;2023-02-03T01:05:29;15.95;;;9.10;;
30301;SDS011;17111;52.130;5.028;2023-02-03T01:07:56;15.18;;;8.75;;
30301;SDS011;17111;52.130;5.028;2023-02-03T01:10:22;15.50;;;8.00;;
30301;SDS011;17111;52.130;5.028;2023-02-03T01:12:49;18.52;;;8.98;;
30301;SDS011;17111;52.130;5.028;2023-02-03T01:15:15;14.65;;;8.43;;
30301;SDS011;17111;52.130;5.028;2023-02-03T01:17:42;15.10;;;7.90;;
30301;SDS011;17111;52.130;5.028;2023-02-03T01:20:09;19.60;;;9.20;;
30301;SDS011;17111;52.130;5.028;2023-02-03T01:22:38;16.45;;;8.32;;
30301;SDS011;17111;52.130;5.028;2023-02-03T01:25:05;15.25;;;7.68;;
30301;SDS011;17111;52.130;5.028;2023-02-03T01:27:32;13.77;;;7.20;;
30301;SDS011;17111;52.130;5.028;2023-02-03T01:29:59;12.77;;;7.20;;
30301;SDS011;17111;52.130;5.028;2023-02-03T01:32:26;13.95;;;7.13;;
30301;SDS011;17111;52.130;5.028;2023-02-03T01:34:52;13.10;;;7.40;;
30301;SDS011;17111;52.130;5.028;2023-02-03T01:37:19;14.20;;;7.60;;
30301;SDS011;17111;52.130;5.028;2023-02-03T01:39:45;13.38;;;6.90;;
30301;SDS011;17111;52.130;5.028;2023-02-03T01:42:12;14.38;;;7.40;;
30301;SDS011;17111;52.130;5.028;2023-02-03T01:44:47;12.02;;;6.75;;
30301;SDS011;17111;52.130;5.028;2023-02-03T01:50:24;15.77;;;6.90;;
30301;SDS011;17111;52.130;5.028;2023-02-03T01:52:57;10.93;;;6.47;;
30301;SDS011;17111;52.130;5.028;2023-02-03T01:55:33;13.10;;;6.65;;
30301;SDS011;17111;52.130;5.028;2023-02-03T01:58:24;12.10;;;5.95;;
30301;SDS011;17111;52.130;5.028;2023-02-03T02:00:52;10.77;;;5.93;;
30301;SDS011;17111;52.130;5.028;2023-02-03T02:03:22;11.07;;;6.20;;
30301;SDS011;17111;52.130;5.028;2023-02-03T02:05:53;10.30;;;5.70;;
30301;SDS011;17111;52.130;5.028;2023-02-03T02:08:25;10.00;;;5.30;;
30301;SDS011;17111;52.130;5.028;2023-02-03T02:10:52;9.10;;;5.03;;
30301;SDS011;17111;52.130;5.028;2023-02-03T02:13:19;9.13;;;5.25;;
30301;SDS011;17111;52.130;5.028;2023-02-03T02:16:01;9.40;;;5.30;;
30301;SDS011;17111;52.130;5.028;2023-02-03T02:18:39;10.45;;;5.03;;
30301;SDS011;17111;52.130;5.028;2023-02-03T02:27:43;9.20;;;4.60;;
30301;SDS011;17111;52.130;5.028;2023-02-03T02:44:00;11.30;;;4.93;;
30301;SDS011;17111;52.130;5.028;2023-02-03T02:46:36;10.95;;;4.38;;
30301;SDS011;17111;52.130;5.028;2023-02-03T02:49:11;7.22;;;3.70;;
30301;SDS011;17111;52.130;5.028;2023-02-03T02:51:44;6.80;;;3.80;;
30301;SDS011;17111;52.130;5.028;2023-02-03T02:54:14;6.40;;;3.28;;
30301;SDS011;17111;52.130;5.028;2023-02-03T02:56:44;7.80;;;3.40;;
30301;SDS011;17111;52.130;5.028;2023-02-03T02:59:14;6.50;;;3.90;;
30301;SDS011;17111;52.130;5.028;2023-02-03T03:01:41;8.55;;;3.50;;
30301;SDS011;17111;52.130;5.028;2023-02-03T03:04:08;6.15;;;2.83;;
30301;SDS011;17111;52.130;5.028;2023-02-03T03:06:40;6.65;;;3.05;;
30301;SDS011;17111;52.130;5.028;2023-02-03T03:09:13;5.95;;;2.97;;
30301;SDS011;17111;52.130;5.028;2023-02-03T03:11:46;5.50;;;2.90;;
30301;SDS011;17111;52.130;5.028;2023-02-03T03:14:21;7.32;;;2.78;;
30301;SDS011;17111;52.130;5.028;2023-02-03T03:16:52;4.65;;;2.30;;
30301;SDS011;17111;52.130;5.028;2023-02-03T03:19:26;6.97;;;2.40;;
30301;SDS011;17111;52.130;5.028;2023-02-03T03:21:59;5.55;;;2.53;;
30301;SDS011;17111;52.130;5.028;2023-02-03T03:24:51;6.18;;;2.88;;
30301;SDS011;17111;52.130;5.028;2023-02-03T03:27:22;5.10;;;2.28;;
30301;SDS011;17111;52.130;5.028;2023-02-03T03:29:58;5.03;;;2.42;;
30301;SDS011;17111;52.130;5.028;2023-02-03T03:32:28;5.93;;;2.72;;
30301;SDS011;17111;52.130;5.028;2023-02-03T03:34:58;5.15;;;2.40;;
30301;SDS011;17111;52.130;5.028;2023-02-03T03:42:47;4.47;;;2.05;;
30301;SDS011;17111;52.130;5.028;2023-02-03T03:50:34;5.53;;;2.08;;
30301;SDS011;17111;52.130;5.028;2023-02-03T03:53:06;3.72;;;1.75;;
30301;SDS011;17111;52.130;5.028;2023-02-03T03:55:35;3.55;;;1.75;;
30301;SDS011;17111;52.130;5.028;2023-02-03T03:58:09;6.32;;;1.90;;
30301;SDS011;17111;52.130;5.028;2023-02-03T04:00:41;6.30;;;2.15;;
30301;SDS011;17111;52.130;5.028;2023-02-03T04:03:13;3.85;;;1.65;;
30301;SDS011;17111;52.130;5.028;2023-02-03T04:05:53;4.30;;;1.70;;
30301;SDS011;17111;52.130;5.028;2023-02-03T04:08:20;6.43;;;1.73;;
30301;SDS011;17111;52.130;5.028;2023-02-03T04:10:46;4.07;;;1.80;;
30301;SDS011;17111;52.130;5.028;2023-02-03T04:13:13;3.65;;;1.27;;
30301;SDS011;17111;52.130;5.028;2023-02-03T04:15:41;5.45;;;1.75;;
30301;SDS011;17111;52.130;5.028;2023-02-03T04:18:08;3.22;;;1.42;;
30301;SDS011;17111;52.130;5.028;2023-02-03T04:20:38;4.95;;;1.65;;
30301;SDS011;17111;52.130;5.028;2023-02-03T04:23:06;2.88;;;1.50;;
30301;SDS011;17111;52.130;5.028;2023-02-03T04:25:32;3.85;;;1.45;;
30301;SDS011;17111;52.130;5.028;2023-02-03T04:27:59;2.42;;;1.55;;
30301;SDS011;17111;52.130;5.028;2023-02-03T04:30:26;4.18;;;1.60;;
30301;SDS011;17111;52.130;5.028;2023-02-03T04:32:53;4.22;;;1.63;;
30301;SDS011;17111;52.130;5.028;2023-02-03T04:35:19;3.28;;;1.10;;
30301;SDS011;17111;52.130;5.028;2023-02-03T04:37:46;3.83;;;1.35;;
30301;SDS011;17111;52.130;5.028;2023-02-03T04:40:13;6.68;;;1.70;;
30301;SDS011;17111;52.130;5.028;2023-02-03T04:42:40;3.85;;;1.30;;
30301;SDS011;17111;52.130;5.028;2023-02-03T04:45:07;3.05;;;1.20;;
30301;SDS011;17111;52.130;5.028;2023-02-03T04:47:35;4.93;;;1.40;;
30301;SDS011;17111;52.130;5.028;2023-02-03T04:50:02;4.43;;;1.35;;
30301;SDS011;17111;52.130;5.028;2023-02-03T04:52:29;2.97;;;1.20;;
30301;SDS011;17111;52.130;5.028;2023-02-03T04:54:55;4.22;;;1.52;;
30301;SDS011;17111;52.130;5.028;2023-02-03T04:57:22;3.63;;;1.30;;
30301;SDS011;17111;52.130;5.028;2023-02-03T04:59:49;6.22;;;1.95;;
30301;SDS011;17111;52.130;5.028;2023-02-03T05:02:15;7.03;;;1.75;;
30301;SDS011;17111;52.130;5.028;2023-02-03T05:04:42;3.60;;;1.20;;
30301;SDS011;17111;52.130;5.028;2023-02-03T05:07:08;7.40;;;1.85;;
30301;SDS011;17111;52.130;5.028;2023-02-03T05:09:35;5.15;;;2.15;;
30301;SDS011;17111;52.130;5.028;2023-02-03T05:12:01;6.57;;;2.50;;
30301;SDS011;17111;52.130;5.028;2023-02-03T05:14:28;5.65;;;2.40;;
30301;SDS011;17111;52.130;5.028;2023-02-03T05:16:54;7.20;;;2.70;;
30301;SDS011;17111;52.130;5.028;2023-02-03T05:19:21;6.82;;;2.90;;
30301;SDS011;17111;52.130;5.028;2023-02-03T05:21:48;9.57;;;3.60;;
30301;SDS011;17111;52.130;5.028;2023-02-03T05:24:14;9.23;;;4.00;;
30301;SDS011;17111;52.130;5.028;2023-02-03T05:26:41;11.18;;;5.45;;
30301;SDS011;17111;52.130;5.028;2023-02-03T05:29:07;10.88;;;5.68;;
30301;SDS011;17111;52.130;5.028;2023-02-03T05:31:35;15.15;;;6.43;;
30301;SDS011;17111;52.130;5.028;2023-02-03T05:34:01;14.95;;;6.53;;
30301;SDS011;17111;52.130;5.028;2023-02-03T05:36:28;13.77;;;6.68;;
30301;SDS011;17111;52.130;5.028;2023-02-03T05:38:54;16.45;;;8.00;;
30301;SDS011;17111;52.130;5.028;2023-02-03T05:41:21;12.35;;;6.70;;
30301;SDS011;17111;52.130;5.028;2023-02-03T05:44:06;19.83;;;8.43;;
30301;SDS011;17111;52.130;5.028;2023-02-03T05:46:33;16.30;;;7.68;;
30301;SDS011;17111;52.130;5.028;2023-02-03T05:48:59;16.52;;;8.15;;
30301;SDS011;17111;52.130;5.028;2023-02-03T05:51:26;15.68;;;8.25;;
30301;SDS011;17111;52.130;5.028;2023-02-03T05:53:53;16.40;;;8.80;;
30301;SDS011;17111;52.130;5.028;2023-02-03T05:56:19;16.73;;;8.50;;
30301;SDS011;17111;52.130;5.028;2023-02-03T05:58:46;17.13;;;8.13;;
30301;SDS011;17111;52.130;5.028;2023-02-03T06:01:13;18.45;;;8.30;;
30301;SDS011;17111;52.130;5.028;2023-02-03T06:03:40;17.10;;;7.90;;
30301;SDS011;17111;52.130;5.028;2023-02-03T06:06:09;15.30;;;7.88;;
30301;SDS011;17111;52.130;5.028;2023-02-03T06:08:36;18.50;;;8.13;;
30301;SDS011;17111;52.130;5.028;2023-02-03T06:11:02;16.13;;;8.20;;
30301;SDS011;17111;52.130;5.028;2023-02-03T06:13:29;15.95;;;7.88;;
30301;SDS011;17111;52.130;5.028;2023-02-03T06:15:55;14.23;;;6.90;;
30301;SDS011;17111;52.130;5.028;2023-02-03T06:18:22;17.58;;;8.27;;
30301;SDS011;17111;52.130;5.028;2023-02-03T06:20:49;14.50;;;7.38;;
30301;SDS011;17111;52.130;5.028;2023-02-03T06:23:16;14.10;;;6.97;;
30301;SDS011;17111;52.130;5.028;2023-02-03T06:25:44;15.25;;;7.05;;
30301;SDS011;17111;52.130;5.028;2023-02-03T06:28:13;14.32;;;7.43;;
30301;SDS011;17111;52.130;5.028;2023-02-03T06:30:40;15.77;;;7.22;;
30301;SDS011;17111;52.130;5.028;2023-02-03T06:33:06;14.93;;;7.28;;
30301;SDS011;17111;52.130;5.028;2023-02-03T06:35:33;12.32;;;6.95;;
30301;SDS011;17111;52.130;5.028;2023-02-03T06:38:00;14.38;;;7.07;;
30301;SDS011;17111;52.130;5.028;2023-02-03T06:40:26;14.45;;;6.93;;
30301;SDS011;17111;52.130;5.028;2023-02-03T06:42:53;11.95;;;6.63;;
30301;SDS011;17111;52.130;5.028;2023-02-03T06:45:20;13.55;;;6.47;;
30301;SDS011;17111;52.130;5.028;2023-02-03T06:47:47;13.43;;;6.45;;
30301;SDS011;17111;52.130;5.028;2023-02-03T06:50:13;13.45;;;6.70;;
30301;SDS011;17111;52.130;5.028;2023-02-03T06:52:41;11.75;;;6.80;;
30301;SDS011;17111;52.130;5.028;2023-02-03T06:55:08;10.77;;;5.70;;
30301;SDS011;17111;52.130;5.028;2023-02-03T06:57:34;12.93;;;5.85;;
30301;SDS011;17111;52.130;5.028;2023-02-03T07:00:01;13.48;;;5.95;;
30301;SDS011;17111;52.130;5.028;2023-02-03T07:02:28;10.18;;;5.25;;
30301;SDS011;17111;52.130;5.028;2023-02-03T07:04:55;10.13;;;5.85;;
30301;SDS011;17111;52.130;5.028;2023-02-03T07:07:21;12.63;;;5.55;;
30301;SDS011;17111;52.130;5.028;2023-02-03T07:09:48;9.52;;;5.60;;
30301;SDS011;17111;52.130;5.028;2023-02-03T07:12:14;10.13;;;5.28;;
30301;SDS011;17111;52.130;5.028;2023-02-03T07:14:41;10.50;;;5.20;;
30301;SDS011;17111;52.130;5.028;2023-02-03T07:17:07;10.65;;;5.13;;
30301;SDS011;17111;52.130;5.028;2023-02-03T07:19:34;10.93;;;4.93;;
30301;SDS011;17111;52.130;5.028;2023-02-03T07:22:01;11.23;;;5.22;;
30301;SDS011;17111;52.130;5.028;2023-02-03T07:24:27;11.27;;;4.78;;
30301;SDS011;17111;52.130;5.028;2023-02-03T07:26:54;10.80;;;4.78;;
30301;SDS011;17111;52.130;5.028;2023-02-03T07:29:20;10.02;;;4.35;;
30301;SDS011;17111;52.130;5.028;2023-02-03T07:31:47;11.18;;;4.78;;
30301;SDS011;17111;52.130;5.028;2023-02-03T07:34:13;7.63;;;4.15;;
30301;SDS011;17111;52.130;5.028;2023-02-03T07:36:40;8.68;;;4.30;;
30301;SDS011;17111;52.130;5.028;2023-02-03T07:39:06;9.95;;;4.15;;
30301;SDS011;17111;52.130;5.028;2023-02-03T07:41:33;7.68;;;3.92;;
30301;SDS011;17111;52.130;5.028;2023-02-03T07:43:59;9.38;;;4.05;;
30301;SDS011;17111;52.130;5.028;2023-02-03T07:46:26;12.90;;;5.35;;
30301;SDS011;17111;52.130;5.028;2023-02-03T07:48:53;11.15;;;3.60;;
30301;SDS011;17111;52.130;5.028;2023-02-03T07:51:19;8.00;;;4.05;;
30301;SDS011;17111;52.130;5.028;2023-02-03T07:53:46;10.18;;;4.15;;
30301;SDS011;17111;52.130;5.028;2023-02-03T07:56:12;11.50;;;4.03;;
30301;SDS011;17111;52.130;5.028;2023-02-03T07:58:39;8.77;;;3.63;;
30301;SDS011;17111;52.130;5.028;2023-02-03T08:01:13;6.10;;;3.33;;
30301;SDS011;17111;52.130;5.028;2023-02-03T08:03:41;9.52;;;3.65;;
30301;SDS011;17111;52.130;5.028;2023-02-03T08:06:08;7.55;;;3.17;;
30301;SDS011;17111;52.130;5.028;2023-02-03T08:08:35;7.40;;;3.45;;
30301;SDS011;17111;52.130;5.028;2023-02-03T08:11:02;7.32;;;3.80;;
30301;SDS011;17111;52.130;5.028;2023-02-03T08:13:28;7.50;;;3.13;;
30301;SDS011;17111;52.130;5.028;2023-02-03T08:15:55;7.38;;;3.00;;
30301;SDS011;17111;52.130;5.028;2023-02-03T08:18:22;8.73;;;2.95;;
30301;SDS011;17111;52.130;5.028;2023-02-03T08:20:48;8.15;;;3.25;;
30301;SDS011;17111;52.130;5.028;2023-02-03T08:23:15;4.65;;;2.40;;
30301;SDS011;17111;52.130;5.028;2023-02-03T08:25:41;7.75;;;3.03;;
30301;SDS011;17111;52.130;5.028;2023-02-03T08:28:08;8.50;;;3.17;;
30301;SDS011;17111;52.130;5.028;2023-02-03T08:30:35;6.70;;;2.65;;
30301;SDS011;17111;52.130;5.028;2023-02-03T08:33:02;7.70;;;2.40;;
30301;SDS011;17111;52.130;5.028;2023-02-03T08:35:28;4.10;;;2.50;;
30301;SDS011;17111;52.130;5.028;2023-02-03T08:37:55;5.93;;;3.00;;
30301;SDS011;17111;52.130;5.028;2023-02-03T08:40:22;5.60;;;2.40;;
30301;SDS011;17111;52.130;5.028;2023-02-03T08:42:48;6.05;;;3.05;;
30301;SDS011;17111;52.130;5.028;2023-02-03T08:45:15;7.40;;;2.78;;
30301;SDS011;17111;52.130;5.028;2023-02-03T08:47:41;6.82;;;2.78;;
30301;SDS011;17111;52.130;5.028;2023-02-03T08:50:08;6.05;;;2.33;;
30301;SDS011;17111;52.130;5.028;2023-02-03T08:52:35;5.90;;;2.80;;
30301;SDS011;17111;52.130;5.028;2023-02-03T08:55:02;8.60;;;3.03;;
30301;SDS011;17111;52.130;5.028;2023-02-03T08:57:33;5.72;;;2.15;;
30301;SDS011;17111;52.130;5.028;2023-02-03T09:00:01;5.68;;;2.60;;
30301;SDS011;17111;52.130;5.028;2023-02-03T09:02:30;6.85;;;2.58;;
30301;SDS011;17111;52.130;5.028;2023-02-03T09:04:57;5.47;;;2.00;;
30301;SDS011;17111;52.130;5.028;2023-02-03T09:07:24;5.32;;;2.20;;
30301;SDS011;17111;52.130;5.028;2023-02-03T09:09:51;6.88;;;2.47;;
30301;SDS011;17111;52.130;5.028;2023-02-03T09:12:17;5.13;;;1.67;;
30301;SDS011;17111;52.130;5.028;2023-02-03T09:14:44;6.53;;;2.40;;
30301;SDS011;17111;52.130;5.028;2023-02-03T09:17:10;7.40;;;1.98;;
30301;SDS011;17111;52.130;5.028;2023-02-03T09:19:37;7.50;;;2.60;;
30301;SDS011;17111;52.130;5.028;2023-02-03T09:22:04;7.88;;;2.65;;
30301;SDS011;17111;52.130;5.028;2023-02-03T09:24:31;18.52;;;3.58;;
30301;SDS011;17111;52.130;5.028;2023-02-03T09:26:57;15.20;;;3.20;;
30301;SDS011;17111;52.130;5.028;2023-02-03T09:29:26;14.38;;;3.58;;
30301;SDS011;17111;52.130;5.028;2023-02-03T09:31:53;10.63;;;2.90;;
30301;SDS011;17111;52.130;5.028;2023-02-03T09:34:19;17.42;;;3.20;;
30301;SDS011;17111;52.130;5.028;2023-02-03T09:36:47;14.32;;;3.40;;
30301;SDS011;17111;52.130;5.028;2023-02-03T09:39:14;11.98;;;3.70;;
30301;SDS011;17111;52.130;5.028;2023-02-03T09:44:50;18.88;;;3.38;;
30301;SDS011;17111;52.130;5.028;2023-02-03T09:47:21;13.10;;;3.90;;
30301;SDS011;17111;52.130;5.028;2023-02-03T09:49:58;10.57;;;3.45;;
30301;SDS011;17111;52.130;5.028;2023-02-03T09:52:37;11.32;;;3.33;;
30301;SDS011;17111;52.130;5.028;2023-02-03T09:55:29;9.45;;;3.28;;
30301;SDS011;17111;52.130;5.028;2023-02-03T09:58:09;9.27;;;3.78;;
30301;SDS011;17111;52.130;5.028;2023-02-03T10:03:50;13.38;;;3.50;;
30301;SDS011;17111;52.130;5.028;2023-02-03T10:06:13;14.27;;;3.85;;
30301;SDS011;17111;52.130;5.028;2023-02-03T10:08:54;11.65;;;3.80;;
30301;SDS011;17111;52.130;5.028;2023-02-03T10:11:41;9.82;;;3.28;;
30301;SDS011;17111;52.130;5.028;2023-02-03T10:15:05;12.18;;;3.60;;
30301;SDS011;17111;52.130;5.028;2023-02-03T10:17:26;8.65;;;2.70;;
30301;SDS011;17111;52.130;5.028;2023-02-03T10:23:06;10.95;;;2.67;;
30301;SDS011;17111;52.130;5.028;2023-02-03T10:28:23;11.43;;;2.70;;
30301;SDS011;17111;52.130;5.028;2023-02-03T10:30:54;10.98;;;2.78;;
30301;SDS011;17111;52.130;5.028;2023-02-03T10:33:26;9.50;;;2.80;;
30301;SDS011;17111;52.130;5.028;2023-02-03T10:41:17;7.43;;;2.65;;
30301;SDS011;17111;52.130;5.028;2023-02-03T10:43:48;8.48;;;2.85;;
30301;SDS011;17111;52.130;5.028;2023-02-03T10:46:30;10.07;;;2.85;;
30301;SDS011;17111;52.130;5.028;2023-02-03T10:48:58;10.10;;;2.63;;
30301;SDS011;17111;52.130;5.028;2023-02-03T10:51:27;9.60;;;2.50;;
30301;SDS011;17111;52.130;5.028;2023-02-03T10:53:57;6.28;;;2.05;;
30301;SDS011;17111;52.130;5.028;2023-02-03T10:56:28;7.80;;;2.60;;
30301;SDS011;17111;52.130;5.028;2023-02-03T10:58:58;7.63;;;2.35;;
30301;SDS011;17111;52.130;5.028;2023-02-03T11:01:42;7.53;;;2.53;;
30301;SDS011;17111;52.130;5.028;2023-02-03T11:04:30;7.90;;;2.80;;
30301;SDS011;17111;52.130;5.028;2023-02-03T11:06:59;9.73;;;2.45;;
30301;SDS011;17111;52.130;5.028;2023-02-03T11:09:30;8.70;;;2.15;;
30301;SDS011;17111;52.130;5.028;2023-02-03T11:12:12;8.43;;;2.60;;
30301;SDS011;17111;52.130;5.028;2023-02-03T11:14:43;6.25;;;2.25;;
30301;SDS011;17111;52.130;5.028;2023-02-03T11:17:32;7.20;;;2.97;;
30301;SDS011;17111;52.130;5.028;2023-02-03T11:20:12;6.97;;;2.10;;
30301;SDS011;17111;52.130;5.028;2023-02-03T11:22:41;5.70;;;1.95;;
30301;SDS011;17111;52.130;5.028;2023-02-03T11:25:23;8.48;;;1.77;;
30301;SDS011;17111;52.130;5.028;2023-02-03T11:27:55;7.72;;;2.08;;
30301;SDS011;17111;52.130;5.028;2023-02-03T11:30:28;6.13;;;1.90;;
30301;SDS011;17111;52.130;5.028;2023-02-03T11:32:55;6.30;;;2.00;;
30301;SDS011;17111;52.130;5.028;2023-02-03T11:35:27;5.10;;;1.80;;
30301;SDS011;17111;52.130;5.028;2023-02-03T11:37:57;4.97;;;1.73;;
30301;SDS011;17111;52.130;5.028;2023-02-03T11:40:27;6.30;;;1.75;;
30301;SDS011;17111;52.130;5.028;2023-02-03T11:45:36;7.05;;;2.38;;
30301;SDS011;17111;52.130;5.028;2023-02-03T12:09:47;6.53;;;1.80;;
30301;SDS011;17111;52.130;5.028;2023-02-03T12:18:14;4.40;;;1.35;;
30301;SDS011;17111;52.130;5.028;2023-02-03T12:23:47;5.18;;;1.20;;
30301;SDS011;17111;52.130;5.028;2023-02-03T12:26:33;4.85;;;1.58;;
30301;SDS011;17111;52.130;5.028;2023-02-03T12:29:09;5.68;;;1.73;;
30301;SDS011;17111;52.130;5.028;2023-02-03T12:31:44;5.03;;;1.58;;
30301;SDS011;17111;52.130;5.028;2023-02-03T12:34:23;2.83;;;1.17;;
30301;SDS011;17111;52.130;5.028;2023-02-03T12:37:41;6.47;;;1.52;;
30301;SDS011;17111;52.130;5.028;2023-02-03T12:39:52;5.03;;;1.50;;
30301;SDS011;17111;52.130;5.028;2023-02-03T12:42:26;5.85;;;1.88;;
30301;SDS011;17111;52.130;5.028;2023-02-03T12:47:51;4.78;;;1.60;;
30301;SDS011;17111;52.130;5.028;2023-02-03T12:50:32;3.28;;;1.20;;
30301;SDS011;17111;52.130;5.028;2023-02-03T12:53:00;4.65;;;1.50;;
30301;SDS011;17111;52.130;5.028;2023-02-03T12:55:36;5.75;;;1.30;;
30301;SDS011;17111;52.130;5.028;2023-02-03T12:58:21;5.90;;;1.67;;
30301;SDS011;17111;52.130;5.028;2023-02-03T13:03:31;4.03;;;1.38;;
30301;SDS011;17111;52.130;5.028;2023-02-03T13:06:06;5.15;;;1.40;;
30301;SDS011;17111;52.130;5.028;2023-02-03T13:09:01;5.50;;;1.40;;
30301;SDS011;17111;52.130;5.028;2023-02-03T13:16:43;3.97;;;1.02;;
30301;SDS011;17111;52.130;5.028;2023-02-03T13:19:23;2.92;;;1.20;;
30301;SDS011;17111;52.130;5.028;2023-02-03T13:24:19;3.78;;;1.00;;
30301;SDS011;17111;52.130;5.028;2023-02-03T13:29:39;3.40;;;1.00;;
30301;SDS011;17111;52.130;5.028;2023-02-03T13:35:37;3.47;;;1.00;;
30301;SDS011;17111;52.130;5.028;2023-02-03T13:43:34;4.20;;;1.60;;
30301;SDS011;17111;52.130;5.028;2023-02-03T13:46:06;4.82;;;1.38;;
30301;SDS011;17111;52.130;5.028;2023-02-03T13:48:44;3.95;;;1.23;;
30301;SDS011;17111;52.130;5.028;2023-02-03T13:51:13;3.92;;;1.17;;
30301;SDS011;17111;52.130;5.028;2023-02-03T13:53:43;2.40;;;0.90;;
30301;SDS011;17111;52.130;5.028;2023-02-03T13:56:24;5.10;;;1.45;;
30301;SDS011;17111;52.130;5.028;2023-02-03T14:01:32;2.65;;;1.20;;
30301;SDS011;17111;52.130;5.028;2023-02-03T14:04:52;4.35;;;1.35;;
30301;SDS011;17111;52.130;5.028;2023-02-03T14:06:54;2.47;;;1.10;;
30301;SDS011;17111;52.130;5.028;2023-02-03T14:12:16;4.43;;;1.60;;
30301;SDS011;17111;52.130;5.028;2023-02-03T14:14:57;4.60;;;1.73;;
30301;SDS011;17111;52.130;5.028;2023-02-03T14:19:59;3.78;;;1.60;;
30301;SDS011;17111;52.130;5.028;2023-02-03T14:22:26;3.13;;;1.45;;
30301;SDS011;17111;52.130;5.028;2023-02-03T14:24:54;4.95;;;1.90;;
30301;SDS011;17111;52.130;5.028;2023-02-03T14:27:26;4.43;;;1.50;;
30301;SDS011;17111;52.130;5.028;2023-02-03T14:30:28;3.45;;;1.58;;
30301;SDS011;17111;52.130;5.028;2023-02-03T14:35:15;4.93;;;1.88;;
30301;SDS011;17111;52.130;5.028;2023-02-03T14:37:53;4.93;;;2.05;;
30301;SDS011;17111;52.130;5.028;2023-02-03T14:49:58;5.13;;;1.98;;
30301;SDS011;17111;52.130;5.028;2023-02-03T14:55:58;5.20;;;2.20;;
30301;SDS011;17111;52.130;5.028;2023-02-03T14:58:40;7.00;;;2.22;;
30301;SDS011;17111;52.130;5.028;2023-02-03T15:06:53;5.95;;;1.95;;
30301;SDS011;17111;52.130;5.028;2023-02-03T15:09:33;4.80;;;1.90;;
30301;SDS011;17111;52.130;5.028;2023-02-03T15:12:42;6.90;;;3.30;;
30301;SDS011;17111;52.130;5.028;2023-02-03T15:15:24;9.77;;;4.18;;
30301;SDS011;17111;52.130;5.028;2023-02-03T15:17:58;11.25;;;5.15;;
30301;SDS011;17111;52.130;5.028;2023-02-03T15:20:45;17.63;;;7.55;;
30301;SDS011;17111;52.130;5.028;2023-02-03T15:23:20;15.98;;;8.52;;
30301;SDS011;17111;52.130;5.028;2023-02-03T15:26:01;19.05;;;8.82;;
30301;SDS011;17111;52.130;5.028;2023-02-03T15:28:35;19.13;;;9.30;;
30301;SDS011;17111;52.130;5.028;2023-02-03T15:33:47;17.92;;;9.25;;
30301;SDS011;17111;52.130;5.028;2023-02-03T15:36:18;22.52;;;10.55;;
30301;SDS011;17111;52.130;5.028;2023-02-03T15:38:50;20.50;;;9.98;;
30301;SDS011;17111;52.130;5.028;2023-02-03T15:41:24;23.20;;;11.07;;
30301;SDS011;17111;52.130;5.028;2023-02-03T15:43:59;23.73;;;11.38;;
30301;SDS011;17111;52.130;5.028;2023-02-03T15:46:37;25.85;;;12.45;;
30301;SDS011;17111;52.130;5.028;2023-02-03T15:49:14;28.65;;;13.52;;
30301;SDS011;17111;52.130;5.028;2023-02-03T15:51:46;33.80;;;16.00;;
30301;SDS011;17111;52.130;5.028;2023-02-03T15:54:19;40.80;;;19.35;;
30301;SDS011;17111;52.130;5.028;2023-02-03T15:56:50;43.97;;;19.63;;
30301;SDS011;17111;52.130;5.028;2023-02-03T15:59:30;44.60;;;23.25;;
30301;SDS011;17111;52.130;5.028;2023-02-03T16:02:06;48.85;;;25.38;;
30301;SDS011;17111;52.130;5.028;2023-02-03T16:04:41;53.55;;;25.35;;
30301;SDS011;17111;52.130;5.028;2023-02-03T16:07:18;47.55;;;25.45;;
30301;SDS011;17111;52.130;5.028;2023-02-03T16:09:56;50.85;;;26.80;;
30301;SDS011;17111;52.130;5.028;2023-02-03T16:12:25;56.28;;;27.60;;
30301;SDS011;17111;52.130;5.028;2023-02-03T16:14:54;50.30;;;26.42;;
30301;SDS011;17111;52.130;5.028;2023-02-03T16:17:32;52.08;;;27.13;;
30301;SDS011;17111;52.130;5.028;2023-02-03T16:22:37;48.47;;;26.15;;
30301;SDS011;17111;52.130;5.028;2023-02-03T16:25:18;52.75;;;26.70;;
30301;SDS011;17111;52.130;5.028;2023-02-03T16:30:56;48.33;;;26.50;;
30301;SDS011;17111;52.130;5.028;2023-02-03T16:34:13;49.08;;;27.23;;
30301;SDS011;17111;52.130;5.028;2023-02-03T16:37:00;51.05;;;26.00;;
30301;SDS011;17111;52.130;5.028;2023-02-03T16:39:46;51.97;;;27.35;;
30301;SDS011;17111;52.130;5.028;2023-02-03T16:42:35;51.72;;;26.92;;
30301;SDS011;17111;52.130;5.028;2023-02-03T16:45:23;47.70;;;25.75;;
30301;SDS011;17111;52.130;5.028;2023-02-03T16:48:09;46.88;;;24.20;;
30301;SDS011;17111;52.130;5.028;2023-02-03T16:50:55;46.83;;;25.70;;
30301;SDS011;17111;52.130;5.028;2023-02-03T16:53:29;46.28;;;23.38;;
30301;SDS011;17111;52.130;5.028;2023-02-03T16:56:01;47.45;;;23.70;;
30301;SDS011;17111;52.130;5.028;2023-02-03T16:58:29;43.88;;;22.60;;
30301;SDS011;17111;52.130;5.028;2023-02-03T17:00:57;42.47;;;22.85;;
30301;SDS011;17111;52.130;5.028;2023-02-03T17:03:26;38.40;;;20.02;;
30301;SDS011;17111;52.130;5.028;2023-02-03T17:05:54;48.45;;;23.60;;
30301;SDS011;17111;52.130;5.028;2023-02-03T17:08:23;44.72;;;24.77;;
30301;SDS011;17111;52.130;5.028;2023-02-03T17:10:51;49.08;;;25.13;;
30301;SDS011;17111;52.130;5.028;2023-02-03T17:13:18;47.58;;;25.10;;
30301;SDS011;17111;52.130;5.028;2023-02-03T17:15:47;47.88;;;25.80;;
30301;SDS011;17111;52.130;5.028;2023-02-03T17:18:17;48.10;;;24.65;;
30301;SDS011;17111;52.130;5.028;2023-02-03T17:20:44;51.65;;;26.50;;
30301;SDS011;17111;52.130;5.028;2023-02-03T17:23:11;55.30;;;28.27;;
30301;SDS011;17111;52.130;5.028;2023-02-03T17:25:42;50.47;;;27.83;;
30301;SDS011;17111;52.130;5.028;2023-02-03T17:28:10;49.55;;;27.48;;